Saint-Basile, Canada
Current Conditions -  °F | °C
As of 3:00 AM on Tuesday 21 Oct 2014 (Local Time) from CYOY Reporting Station
Overcast Overcast  
Wind Chill: 30°   Ceiling: 8200
Heat Index: 30°   Visibility: 9mi
Dew Point: 28°   Wind: 0mph
Humidity: 93%   Direction: NA
Pressure: 29.97"   Gusts: NA
Location:  46.75°N, 71.82°W
Report Text: CYOY 210700Z AUTO 00000KT 9SM OVC082 M01/M02 A2997 RMK SLP156
Loading
Personal Weather Stations






























Interactive Weather Map
Tropical Storm Tracking
New forecast layout! Learn more

10-Day Weather Forecast

Advertisements
Track Severe Weather on mobile